메인 페이지
METAR-TAF:

METAR-TAF

공항 :

오클라호마시티, 오클라호마, 미국

위도: 35-23-19N, 경도: 097-36-01W, 고도: 394m

현재 날씨관측

예보는 57분 전, 15:52시(UTC)에 발표되었습니다.
9kt
온도 8°C
습도 100%
기압 1011 hPa
시정: 0.4km
안개

METAR: KOKC 191552Z 19009KT 1/4SM R35R/1800V2400FT FG VV002 08/08 A2985 RMK AO2 SFC VIS 1/2 SLP109 T00780078

시각: 10:49 (16:49 UTC)

예보

예보는 1 시간 42분 전, 15:07시(UTC)에 발표되었습니다.
예보 대상 시간: 19일 15시부터 20일 12시까지 (UTC)
12kt
시정: 0.4km
고도 200ft 상공
안개
19일 1700시부터 (UTC)
12kt
시정: 3.2km
고도 500ft 상공 흐림
박무
19일 1800시부터 (UTC)
12kt
시정: 8.0km
고도 1000ft 상공 구름 많음
박무
19일 1900시부터 (UTC)
서남서10kt
시정: 10km
고도 3500ft 상공 구름 많음
19일 2200시부터 (UTC)
북북서10kt
시정: 10km
고도 3000ft 상공 구름 많음
확률 30%
20일 00시부터 20일 03시까지 (UTC)
약한소나기

TAF: KOKC 191507Z 1915/2012 18012KT 1/4SM FG VV002 FM191700 19012KT 2SM BR OVC005 FM191800 19012KT 5SM BR BKN010 FM191900 25010KT P6SM BKN035 FM192200 34010KT P6SM BKN030 PROB30 2000/2003 -SHRA

4,000개 이상의 공항 관측 자료 및 예보 (METAR 및 TAF 보고).

지도상에서 검색 가능한 기상관측소가 노란 점과 빨간 점으로 표시되어 있습니다.

기상관측소 명을 보려면 표시 위로 마우스를 이동하세요.

날씨 관측과 예보를 보려면 클릭하세요.

지도 변경 : 확대하려면 엑스 표시가 있는 녹색 버튼, 축소하려면 빼기 표시가 있는 녹색 버튼, 다음 페이지의 지도를 보려면 녹색 화살표를 클릭하세요.


METAR-TAF: